Bezoek onze andere website:

Template documentation
and downloads

And another site


Weather Underground Historische gegevens

Dagelijkse Samenvatting mei 24, 2018 Eenheden:  Metrisch    Engels   Beide
« Vorige Dag
Volgende Dag »
Dagelijkse Wekelijkse Maandelijkse Jaarlijkse Aangepaste
  Huidig: Hoog: Laag: Gemiddeld:
Temperatuur: -3.8 °C -17.8 °C -10.3 °C -7.9 °C
Dauwpunt: -11.1 °C -17.8 °C -13.6 °C -12.4 °C
Vochtigheid: 44 % Humidity % 44 % 59 %
Wind snelheid: 17.9 km/h 0 km/h 0 km/h 8.9 km/h
Windvlaag: 36.2 km/h 0 km/h - -
Wind:ENE - - ENE
Luchtdruk: 34428.8 hPa 0 hPa 34428.8 hPa -
Neerslag: 0 mm      
Historical Graphs
 
 
Tabel voor mei 24, 2018
Tijd Temperatuur Dauwpunt Luchtdruk Wind Wind snelheid Windvlaag Vochtigheid Regenval per uur
-17.8 °C -17.8 °C 0 hPa Calm     Humidity % 0 mm
00:04 -9.2 °C -13.1 °C 34544 hPa NE 2.3 km/h 5.1 km/h 63 % 0 mm
00:14 -9.3 °C -12.9 °C 34544 hPa Calm     65 % 0 mm
00:25 -9.5 °C -13 °C 34554.1 hPa Calm   2.6 km/h 66 % 0 mm
00:35 -9.8 °C -13 °C 34554.1 hPa Calm     68 % 0 mm
00:45 -10.1 °C -13.2 °C 34554.1 hPa Calm     69 % 0 mm
00:55 -10.3 °C -13.3 °C 34554.1 hPa Calm   7.7 km/h 70 % 0 mm
01:05 -10.1 °C -13.2 °C 34554.1 hPa ENE 5.1 km/h 5.1 km/h 69 % 0 mm
01:15 -9.4 °C -12.9 °C 34554.1 hPa NE 7.6 km/h 12.9 km/h 66 % 0 mm
01:25 -9.1 °C -12.9 °C 34554.1 hPa ENE 2.3 km/h 10.3 km/h 63 % 0 mm
01:35 -8.8 °C -12.9 °C 34554.1 hPa East 7.6 km/h 10.3 km/h 62 % 0 mm
01:45 -8.8 °C -12.8 °C 34554.1 hPa East 20.9 km/h 20.9 km/h 62 % 0 mm
01:55 -8.8 °C -12.8 °C 34554.1 hPa ESE 5.1 km/h 7.7 km/h 62 % 0 mm
02:05 -8.9 °C -12.9 °C 34554.1 hPa ENE 5.1 km/h 5.1 km/h 62 % 0 mm
02:15 -8.9 °C -12.8 °C 34554.1 hPa NE 5.1 km/h 7.7 km/h 63 % 0 mm
02:25 -9.1 °C -12.9 °C 34554.1 hPa ENE 5.1 km/h 5.1 km/h 63 % 0 mm
02:35 -9.1 °C -13 °C 34554.1 hPa East 2.3 km/h 10.3 km/h 63 % 0 mm
02:45 -9.2 °C -13 °C 34544 hPa East 7.6 km/h 10.3 km/h 64 % 0 mm
02:55 -9.3 °C -12.9 °C 34544 hPa NNE 10.3 km/h 23.3 km/h 65 % 0 mm
03:05 -9.4 °C -13 °C 34544 hPa NE 5.1 km/h 10.3 km/h 65 % 0 mm
03:15 -9.4 °C -13.1 °C 34544 hPa ENE 5.1 km/h 10.3 km/h 65 % 0 mm
03:25 -9.5 °C -13.1 °C 34544 hPa East 5.1 km/h 7.7 km/h 65 % 0 mm
03:36 -9.6 °C -13.1 °C 34554.1 hPa ENE 5.1 km/h 12.9 km/h 66 % 0 mm
03:46 -9.6 °C -13.1 °C 34554.1 hPa NE 2.3 km/h 12.9 km/h 66 % 0 mm
03:56 -9.6 °C -13.1 °C 34554.1 hPa ENE 5.1 km/h 10.3 km/h 66 % 0 mm
04:06 -9.7 °C -13.2 °C 34544 hPa ENE 10.3 km/h 12.9 km/h 66 % 0 mm
04:16 -9.7 °C -13.2 °C 34544 hPa NE 5.1 km/h 12.9 km/h 66 % 0 mm
04:26 -9.8 °C -13.3 °C 34544 hPa East 2.3 km/h 7.7 km/h 66 % 0 mm
04:36 -9.8 °C -13.2 °C 34533.8 hPa ENE 5.1 km/h 7.7 km/h 67 % 0 mm
04:46 -9.9 °C -13.4 °C 34533.8 hPa NE 5.1 km/h 12.9 km/h 66 % 0 mm
04:56 -9.9 °C -13.3 °C 34533.8 hPa East 2.3 km/h 2.6 km/h 67 % 0 mm
05:06 -10.1 °C -13.4 °C 34533.8 hPa East 2.3 km/h 7.7 km/h 67 % 0 mm
05:16 -10.1 °C -13.4 °C 34533.8 hPa ENE 5.1 km/h 7.7 km/h 67 % 0 mm
05:26 -10.1 °C -13.4 °C 34533.8 hPa ENE 5.1 km/h 7.7 km/h 67 % 0 mm
05:36 -10.2 °C -13.5 °C 34533.8 hPa NE 2.3 km/h 5.1 km/h 67 % 0 mm
05:46 -10.2 °C -13.6 °C 34520.3 hPa ENE 5.1 km/h 7.7 km/h 67 % 0 mm
05:56 -10.2 °C -13.5 °C 34520.3 hPa ENE 5.1 km/h 7.7 km/h 67 % 0 mm
06:06 -10.1 °C -13.4 °C 34520.3 hPa NE 5.1 km/h 12.9 km/h 67 % 0 mm
06:16 -10.1 °C -13.4 °C 34520.3 hPa NE 7.6 km/h 10.3 km/h 67 % 0 mm
06:26 -10.1 °C -13.4 °C 34520.3 hPa Calm   10.3 km/h 67 % 0 mm
06:36 -10.1 °C -13.5 °C 34520.3 hPa NE 5.1 km/h 10.3 km/h 66 % 0 mm
06:46 -9.8 °C -13.4 °C 34520.3 hPa ENE 7.6 km/h 10.3 km/h 65 % 0 mm
06:57 -9.6 °C -13.4 °C 34520.3 hPa NE 10.3 km/h 18.2 km/h 63 % 0 mm
07:07 -9.4 °C -13.3 °C 34520.3 hPa ENE 10.3 km/h 10.3 km/h 63 % 0 mm
07:17 -9.2 °C -13.1 °C 34520.3 hPa ENE 7.6 km/h 15.6 km/h 63 % 0 mm
07:27 -9.3 °C -13.2 °C 34520.3 hPa NE 7.6 km/h 15.6 km/h 63 % 0 mm
07:37 -9.3 °C -13.2 °C 34520.3 hPa NNE 5.1 km/h 12.9 km/h 63 % 0 mm
07:47 -9.1 °C -12.9 °C 34533.8 hPa ENE 5.1 km/h 10.3 km/h 63 % 0 mm
07:57 -8.8 °C -12.9 °C 34533.8 hPa NNE 10.3 km/h 15.6 km/h 61 % 0 mm
08:07 -8.9 °C -12.9 °C 34520.3 hPa NE 7.6 km/h 10.3 km/h 62 % 0 mm
08:17 -8.6 °C -12.9 °C 34520.3 hPa ENE 12.7 km/h 31.1 km/h 60 % 0 mm
08:27 -8.2 °C -12.7 °C 34520.3 hPa ENE 10.3 km/h 25.9 km/h 59 % 0 mm
08:37 -8.1 °C -12.4 °C 34520.3 hPa ENE 10.3 km/h 18.2 km/h 60 % 0 mm
08:47 -7.9 °C -12.6 °C 34510.1 hPa ENE 5.1 km/h 15.6 km/h 58 % 0 mm
08:57 -8.1 °C -12.6 °C 34510.1 hPa East 7.6 km/h 12.9 km/h 59 % 0 mm
09:07 -8.2 °C -12.7 °C 34520.3 hPa ENE 7.6 km/h 25.9 km/h 59 % 0 mm
09:17 -7.9 °C -12.2 °C 34520.3 hPa East 10.3 km/h 25.9 km/h 61 % 0 mm
09:27 -7.6 °C -12.4 °C 34520.3 hPa NNE 15.6 km/h 25.9 km/h 57 % 0 mm
09:37 -7.4 °C -12 °C 34510.1 hPa NNE 7.6 km/h 15.6 km/h 59 % 0 mm
09:47 -7.4 °C -11.9 °C 34510.1 hPa ESE 12.7 km/h 15.6 km/h 59 % 0 mm
09:57 -7.2 °C -12 °C 34510.1 hPa East 12.7 km/h 18.2 km/h 57 % 0 mm
10:07 -6.7 °C -11.7 °C 34510.1 hPa NE 7.6 km/h 15.6 km/h 56 % 0 mm
10:17 -6.3 °C -11.1 °C 34510.1 hPa ENE 10.3 km/h 15.6 km/h 58 % 0 mm
10:27 -6.2 °C -11.6 °C 34510.1 hPa NE 7.6 km/h 15.6 km/h 54 % 0 mm
10:37 -5.9 °C -10.9 °C 34496.6 hPa NNE 10.3 km/h 15.6 km/h 57 % 0 mm
10:47 -5.6 °C -11.2 °C 34496.6 hPa ENE 10.3 km/h 25.9 km/h 53 % 0 mm
10:57 -6 °C -11.2 °C 34496.6 hPa ENE 5.1 km/h 15.6 km/h 55 % 0 mm
11:07 -5.7 °C -11.2 °C 34496.6 hPa NE 15.6 km/h 23.3 km/h 53 % 0 mm
11:17 -5.7 °C -11.6 °C 34486.4 hPa NE 15.6 km/h 23.3 km/h 51 % 0 mm
11:27 -5.5 °C -11.4 °C 34486.4 hPa NNE 12.7 km/h 18.2 km/h 51 % 0 mm
11:37 -5.2 °C -11.3 °C 34486.4 hPa NE 15.6 km/h 15.6 km/h 50 % 0 mm
11:47 -5.3 °C -11 °C 34476.3 hPa NNE 26.2 km/h 28.5 km/h 52 % 0 mm
11:57 -5.5 °C -11.2 °C 34476.3 hPa ENE 12.7 km/h 36.2 km/h 52 % 0 mm
12:07 -5.5 °C -10.9 °C 34476.3 hPa ENE 7.6 km/h 10.3 km/h 54 % 0 mm
12:17 -5.4 °C -10.9 °C 34476.3 hPa ENE 10.3 km/h 28.5 km/h 53 % 0 mm
12:27 -4.9 °C -10.9 °C 34476.3 hPa NE 12.7 km/h 18.2 km/h 51 % 0 mm
12:37 -4.7 °C -10.6 °C 34476.3 hPa NE 17.9 km/h 38.8 km/h 51 % 0 mm
12:47 -4.5 °C -10.3 °C 34462.7 hPa ENE 17.9 km/h 33.6 km/h 52 % 0 mm
12:57 -4.5 °C -10.8 °C 34462.7 hPa SE 23 km/h 31.1 km/h 49 % 0 mm
13:07 -4.7 °C -10.5 °C 34462.7 hPa ENE 10.3 km/h 25.9 km/h 52 % 0 mm
13:17 -4.5 °C -10.8 °C 34462.7 hPa ENE 12.7 km/h 38.8 km/h 49 % 0 mm
13:27 -4.8 °C -11.1 °C 34462.7 hPa ESE 26.2 km/h 41.4 km/h 49 % 0 mm
13:37 -5.2 °C -11 °C 34462.7 hPa East 10.3 km/h 33.6 km/h 52 % 0 mm
13:47 -5.3 °C -11.1 °C 34462.7 hPa East 12.7 km/h 23.3 km/h 52 % 0 mm
13:57 -5.3 °C -10.9 °C 34462.7 hPa ESE 10.3 km/h 18.2 km/h 53 % 0 mm
14:07 -5.2 °C -10.8 °C 34452.6 hPa ENE 15.6 km/h 23.3 km/h 53 % 0 mm
14:17 -5.1 °C -10.3 °C 34452.6 hPa ENE 5.1 km/h 23.3 km/h 55 % 0 mm
14:28 -4.9 °C -10.7 °C 34452.6 hPa ENE 23 km/h 25.9 km/h 52 % 0 mm
14:38 -4.7 °C -10.5 °C 34442.4 hPa SE 5.1 km/h 12.9 km/h 52 % 0 mm
14:48 -4.3 °C -10.6 °C 34428.8 hPa ESE 5.1 km/h 12.9 km/h 49 % 0 mm
14:58 -4.1 °C -10.1 °C 34428.8 hPa NE 17.9 km/h 33.6 km/h 51 % 0 mm
15:08 -3.9 °C -11.2 °C 34428.8 hPa ENE 38.8 km/h 38.8 km/h 44 % 0 mm
15:18 -3.8 °C -11.1 °C 34428.8 hPa ENE 17.9 km/h 36.2 km/h 44 % 0 mm
Weerstation Vierhouten
Gegevens verzameld door Weather Underground - 4 mb

Script ontwikkeld door  Jim McMurry - jmcmurry@mwt.net Aangepast voor de template door  Wim van der Kuil - Leuven-Template.eu

U vindt ons ook hier:

Het Weer Aktueel

WeatherCloud

Weather Underground